createdAt,value
2022-11-12T00:02:15.247Z,3.73
2022-11-12T00:05:18.982Z,3.74
2022-11-12T00:08:24.061Z,3.68
2022-11-12T00:11:29.265Z,3.62
2022-11-12T00:14:32.782Z,3.58
2022-11-12T00:17:36.423Z,3.52
2022-11-12T00:20:40.043Z,3.42
2022-11-12T00:23:43.655Z,3.37
2022-11-12T00:26:48.601Z,3.26
2022-11-12T00:29:52.223Z,3.07
2022-11-12T00:32:55.882Z,3.02
2022-11-12T00:36:01.258Z,2.91
2022-11-12T00:39:06.058Z,2.98
2022-11-12T00:42:11.152Z,2.92
2022-11-12T00:45:15.402Z,2.79
2022-11-12T00:48:19.355Z,2.80
2022-11-12T00:51:23.136Z,2.76
2022-11-12T00:54:26.746Z,2.76
2022-11-12T00:57:31.822Z,2.79
2022-11-12T01:00:35.364Z,2.76
2022-11-12T01:03:40.720Z,2.76
2022-11-12T01:06:44.381Z,2.79
2022-11-12T01:09:48.002Z,2.76
2022-11-12T01:12:53.003Z,2.81
2022-11-12T01:15:56.558Z,2.81
2022-11-12T01:19:02.979Z,2.81
2022-11-12T01:22:06.630Z,2.80
2022-11-12T01:25:10.678Z,2.85
2022-11-12T01:28:15.592Z,2.87
2022-11-12T01:31:22.495Z,2.74
2022-11-12T01:34:26.864Z,2.65
2022-11-12T01:37:30.507Z,2.67
2022-11-12T01:40:34.491Z,2.75
2022-11-12T01:43:39.440Z,2.69
2022-11-12T01:47:01.774Z,2.67
2022-11-12T01:50:18.427Z,2.76
2022-11-12T01:53:27.310Z,2.73
2022-11-12T01:56:33.155Z,2.83
2022-11-12T01:59:44.638Z,2.84
2022-11-12T02:02:56.146Z,2.85
2022-11-12T02:06:06.779Z,2.83
2022-11-12T02:09:11.471Z,2.72
2022-11-12T02:12:36.153Z,2.66
2022-11-12T02:15:41.925Z,2.67
2022-11-12T02:18:45.447Z,2.51
2022-11-12T02:21:50.455Z,2.48
2022-11-12T02:24:54.067Z,2.56
2022-11-12T02:28:01.051Z,2.44
2022-11-12T02:31:04.620Z,2.51
2022-11-12T02:34:08.219Z,2.44
2022-11-12T02:37:13.314Z,2.42
2022-11-12T02:40:17.573Z,2.37
2022-11-12T02:43:21.127Z,2.32
2022-11-12T02:46:25.089Z,2.29
2022-11-12T02:49:29.152Z,2.22
2022-11-12T02:52:34.903Z,2.25
2022-11-12T02:55:38.476Z,2.29
2022-11-12T02:58:42.030Z,2.30
2022-11-12T03:01:45.697Z,2.25
2022-11-12T03:04:49.680Z,2.26
2022-11-12T03:07:59.160Z,2.32
2022-11-12T03:11:09.229Z,2.25
2022-11-12T03:14:12.840Z,2.21
2022-11-12T03:17:16.439Z,2.25
2022-11-12T03:20:20.172Z,2.25
2022-11-12T03:23:27.186Z,2.21
2022-11-12T03:26:35.638Z,2.16
2022-11-12T03:29:39.670Z,2.05
2022-11-12T03:32:43.241Z,1.83
2022-11-12T03:35:46.866Z,1.75
2022-11-12T03:38:51.850Z,1.69
2022-11-12T03:41:55.493Z,1.64
2022-11-12T03:44:59.073Z,1.53
2022-11-12T03:48:02.764Z,1.48
2022-11-12T03:51:06.529Z,1.38
2022-11-12T03:54:11.580Z,1.41
2022-11-12T03:57:15.225Z,1.50
2022-11-12T04:00:20.826Z,1.48
2022-11-12T04:03:24.482Z,1.53
2022-11-12T04:06:50.960Z,1.72
2022-11-12T04:09:55.952Z,1.66
2022-11-12T04:13:16.735Z,1.65
2022-11-12T04:16:40.338Z,1.61
2022-11-12T04:20:01.004Z,1.62
2022-11-12T04:23:04.765Z,1.65
2022-11-12T04:26:23.931Z,1.72
2022-11-12T04:29:45.378Z,1.68
2022-11-12T04:32:51.431Z,1.46
2022-11-12T04:35:55.041Z,1.33
2022-11-12T04:38:58.920Z,1.32
2022-11-12T04:42:22.085Z,1.34
2022-11-12T04:45:26.108Z,1.31
2022-11-12T04:48:30.427Z,1.29
2022-11-12T04:51:52.001Z,1.20
2022-11-12T04:54:56.206Z,1.27
2022-11-12T04:58:01.384Z,1.36
2022-11-12T05:01:04.983Z,1.43
2022-11-12T05:04:08.847Z,1.37
2022-11-12T05:07:12.716Z,1.28
2022-11-12T05:10:16.882Z,1.13
2022-11-12T05:13:21.913Z,0.95
2022-11-12T05:16:25.505Z,1.07
2022-11-12T05:19:29.247Z,1.00
2022-11-12T05:22:43.303Z,1.04
2022-11-12T05:25:47.746Z,1.03
2022-11-12T05:29:12.733Z,1.01
2022-11-12T05:32:18.556Z,1.08
2022-11-12T05:35:22.100Z,1.25
2022-11-12T05:38:25.969Z,1.30
2022-11-12T05:41:39.930Z,1.19
2022-11-12T05:44:54.874Z,1.12
2022-11-12T05:47:58.454Z,1.16
2022-11-12T05:51:17.761Z,1.17
2022-11-12T05:54:21.474Z,1.00
2022-11-12T05:57:25.062Z,0.93
2022-11-12T06:00:30.175Z,0.75
2022-11-12T06:03:34.847Z,0.87
2022-11-12T06:06:38.776Z,0.72
2022-11-12T06:09:42.322Z,0.75
2022-11-12T06:12:45.927Z,0.70
2022-11-12T06:15:51.030Z,0.71
2022-11-12T06:18:54.773Z,0.67
2022-11-12T06:21:58.374Z,0.70
2022-11-12T06:25:02.126Z,0.73
2022-11-12T06:28:06.081Z,0.76
2022-11-12T06:31:11.173Z,0.97
2022-11-12T06:34:14.914Z,0.99
2022-11-12T06:37:18.470Z,0.91
2022-11-12T06:40:21.989Z,0.99
2022-11-12T06:43:26.026Z,1.12
2022-11-12T06:46:30.958Z,1.01
2022-11-12T06:49:34.847Z,0.99
2022-11-12T06:52:38.398Z,1.09
2022-11-12T06:55:42.076Z,1.14
2022-11-12T06:58:45.685Z,1.05
2022-11-12T07:01:50.837Z,1.02
2022-11-12T07:04:55.443Z,1.09
2022-11-12T07:07:59.219Z,0.78
2022-11-12T07:11:02.948Z,1.01
2022-11-12T07:14:07.522Z,1.11
2022-11-12T07:17:12.464Z,1.03
2022-11-12T07:20:16.674Z,1.18
2022-11-12T07:23:20.364Z,1.12
2022-11-12T07:26:27.533Z,0.89
2022-11-12T07:29:47.087Z,0.82
2022-11-12T07:32:53.371Z,0.92
2022-11-12T07:36:02.361Z,1.03
2022-11-12T07:39:06.021Z,1.06
2022-11-12T07:42:09.771Z,1.19
2022-11-12T07:45:13.522Z,1.25
2022-11-12T07:48:18.600Z,1.25
2022-11-12T07:51:25.195Z,1.42
2022-11-12T07:54:28.815Z,1.41
2022-11-12T07:57:34.376Z,1.54
2022-11-12T08:00:37.925Z,1.63
2022-11-12T08:03:42.959Z,1.62
2022-11-12T08:06:46.606Z,1.69
2022-11-12T08:09:53.844Z,1.78
2022-11-12T08:12:59.097Z,1.87
2022-11-12T08:16:03.469Z,1.94
2022-11-12T08:19:08.534Z,1.84
2022-11-12T08:22:12.163Z,1.92
2022-11-12T08:25:16.510Z,2.00
2022-11-12T08:28:20.102Z,2.01
2022-11-12T08:31:25.009Z,2.14
2022-11-12T08:34:30.063Z,2.28
2022-11-12T08:37:33.614Z,2.36
2022-11-12T08:40:39.040Z,2.45
2022-11-12T08:43:44.081Z,2.68
2022-11-12T08:46:47.669Z,2.79
2022-11-12T08:49:52.591Z,2.86
2022-11-12T08:53:01.728Z,2.96
2022-11-12T08:56:05.773Z,3.18
2022-11-12T08:59:09.340Z,3.42
2022-11-12T09:02:14.626Z,3.63
2022-11-12T09:05:19.668Z,3.69
2022-11-12T09:08:26.625Z,3.78
2022-11-12T09:11:30.431Z,3.81
2022-11-12T09:14:33.997Z,3.97
2022-11-12T09:17:37.606Z,4.04
2022-11-12T09:20:43.162Z,4.11
2022-11-12T09:23:46.750Z,4.29
2022-11-12T09:26:53.972Z,4.45
2022-11-12T09:29:57.651Z,4.55
2022-11-12T09:33:01.310Z,4.77
2022-11-12T09:36:07.043Z,4.92
2022-11-12T09:39:10.737Z,5.11
2022-11-12T09:42:18.821Z,5.33
2022-11-12T09:45:29.713Z,5.49
2022-11-12T09:48:44.174Z,5.70
2022-11-12T09:51:55.042Z,5.81
2022-11-12T09:55:09.146Z,5.88
2022-11-12T09:58:14.434Z,5.97
2022-11-12T10:01:24.834Z,6.29
2022-11-12T10:05:11.707Z,6.56
2022-11-12T10:08:39.012Z,6.60
2022-11-12T10:12:21.096Z,6.74
2022-11-12T10:16:14.590Z,6.80
2022-11-12T10:19:41.695Z,6.90
2022-11-12T10:23:07.416Z,7.02
2022-11-12T10:26:17.250Z,7.32
2022-11-12T10:29:31.768Z,7.42
2022-11-12T10:32:38.388Z,7.49
2022-11-12T10:35:42.050Z,7.62
2022-11-12T10:38:51.918Z,7.60
2022-11-12T10:42:07.547Z,7.89
2022-11-12T10:45:31.693Z,7.87
2022-11-12T10:48:36.704Z,7.96
2022-11-12T10:51:40.511Z,8.01
2022-11-12T10:54:44.450Z,7.98
2022-11-12T10:58:19.793Z,7.95
2022-11-12T11:01:23.456Z,7.90
2022-11-12T11:04:33.790Z,7.94
2022-11-12T11:07:37.382Z,7.91
2022-11-12T11:10:41.141Z,7.83
2022-11-12T11:13:49.204Z,7.81
2022-11-12T11:17:00.605Z,7.79
2022-11-12T11:20:05.182Z,7.84
2022-11-12T11:23:19.642Z,7.85
2022-11-12T11:26:35.316Z,7.95
2022-11-12T11:30:04.540Z,8.05
2022-11-12T11:33:48.514Z,8.21
2022-11-12T11:37:02.610Z,8.35
2022-11-12T11:40:21.441Z,8.49
2022-11-12T11:43:46.278Z,8.71
2022-11-12T11:47:14.345Z,8.73
2022-11-12T11:50:28.491Z,9.05
2022-11-12T11:53:46.313Z,9.19
2022-11-12T11:57:02.783Z,9.42
2022-11-12T12:00:25.405Z,9.41
2022-11-12T12:03:43.152Z,9.54
2022-11-12T12:07:13.566Z,9.66
2022-11-12T12:10:46.201Z,9.84
2022-11-12T12:14:18.191Z,9.75
2022-11-12T12:17:44.987Z,9.66
2022-11-12T12:20:59.894Z,9.78
2022-11-12T12:24:11.921Z,9.82
2022-11-12T12:27:22.821Z,9.84
2022-11-12T12:30:26.719Z,9.82
2022-11-12T12:33:38.745Z,9.76
2022-11-12T12:36:46.312Z,9.74
2022-11-12T12:40:05.748Z,9.80
2022-11-12T12:43:22.208Z,9.94
2022-11-12T12:46:31.862Z,10.04
2022-11-12T12:49:40.211Z,10.15
2022-11-12T12:53:06.475Z,10.38
2022-11-12T12:56:48.157Z,10.40
2022-11-12T12:59:51.895Z,10.56
2022-11-12T13:02:55.794Z,10.79
2022-11-12T13:06:10.322Z,10.68
2022-11-12T13:09:28.577Z,10.90
2022-11-12T13:13:22.138Z,10.80
2022-11-12T13:17:00.552Z,10.90
2022-11-12T13:20:37.855Z,10.75
2022-11-12T13:24:06.002Z,10.79
2022-11-12T13:27:11.014Z,10.78
2022-11-12T13:30:59.153Z,10.91
2022-11-12T13:34:19.817Z,10.68
2022-11-12T13:37:25.029Z,10.65
2022-11-12T13:40:42.483Z,10.49
2022-11-12T13:43:48.907Z,10.49
2022-11-12T13:46:55.741Z,10.42
2022-11-12T13:50:03.211Z,10.38
2022-11-12T13:53:11.054Z,10.36
2022-11-12T13:56:29.353Z,10.26
2022-11-12T13:59:34.367Z,10.28
2022-11-12T14:02:41.744Z,10.20
2022-11-12T14:05:50.637Z,10.09
2022-11-12T14:09:35.668Z,10.06
2022-11-12T14:13:08.739Z,9.99
2022-11-12T14:16:38.001Z,10.01
2022-11-12T14:20:18.705Z,9.92
2022-11-12T14:23:25.480Z,9.91
2022-11-12T14:26:39.092Z,9.85
2022-11-12T14:29:43.895Z,9.77
2022-11-12T14:32:52.041Z,9.72
2022-11-12T14:36:00.679Z,9.63
2022-11-12T14:39:04.521Z,9.51
2022-11-12T14:42:16.367Z,9.50
2022-11-12T14:45:25.559Z,9.40
2022-11-12T14:48:34.238Z,9.38
2022-11-12T14:51:45.953Z,9.35
2022-11-12T14:54:55.519Z,9.15
2022-11-12T14:58:00.010Z,9.06
2022-11-12T15:01:59.382Z,8.97
2022-11-12T15:04:54.755Z,8.83
2022-11-12T15:08:01.379Z,8.71
2022-11-12T15:11:27.491Z,8.65
2022-11-12T15:14:31.739Z,8.65
2022-11-12T15:17:38.325Z,8.49
2022-11-12T15:20:43.607Z,8.37
2022-11-12T15:23:53.123Z,8.28
2022-11-12T15:27:01.939Z,8.12
2022-11-12T15:30:18.536Z,8.01
2022-11-12T15:33:24.233Z,7.86
2022-11-12T15:36:29.486Z,7.84
2022-11-12T15:39:44.364Z,7.77
2022-11-12T15:42:49.526Z,7.71
2022-11-12T15:45:56.026Z,7.61
2022-11-12T15:48:59.651Z,7.43
2022-11-12T15:52:04.904Z,7.32
2022-11-12T15:55:10.375Z,7.30
2022-11-12T15:58:19.563Z,7.25
2022-11-12T16:01:23.593Z,7.21
2022-11-12T16:04:27.139Z,7.13
2022-11-12T16:07:32.082Z,6.95
2022-11-12T16:10:37.265Z,6.84
2022-11-12T16:13:40.943Z,6.81
2022-11-12T16:16:44.481Z,6.62
2022-11-12T16:19:48.031Z,6.46
2022-11-12T16:22:54.084Z,6.34
2022-11-12T16:25:57.770Z,6.29
2022-11-12T16:29:01.344Z,6.26
2022-11-12T16:32:06.075Z,6.21
2022-11-12T16:35:10.726Z,6.17
2022-11-12T16:38:18.015Z,6.06
2022-11-12T16:41:21.610Z,5.98
2022-11-12T16:44:25.178Z,5.96
2022-11-12T16:47:28.792Z,5.92
2022-11-12T16:50:32.463Z,5.81
2022-11-12T16:53:37.432Z,5.75
2022-11-12T16:56:41.144Z,5.69
2022-11-12T16:59:45.046Z,5.74
2022-11-12T17:02:53.196Z,5.71
2022-11-12T17:05:57.232Z,5.59
2022-11-12T17:09:02.294Z,5.52
2022-11-12T17:12:06.462Z,5.43
2022-11-12T17:15:11.380Z,5.49
2022-11-12T17:18:15.863Z,5.40
2022-11-12T17:21:20.947Z,5.31
2022-11-12T17:24:28.887Z,5.34
2022-11-12T17:27:33.022Z,5.35
2022-11-12T17:30:36.763Z,5.37
2022-11-12T17:37:16.754Z,5.05
2022-11-12T17:40:22.241Z,5.26
2022-11-12T17:43:30.206Z,5.26
2022-11-12T17:46:36.193Z,5.27
2022-11-12T17:49:40.193Z,5.24
2022-11-12T17:52:44.297Z,5.23
2022-11-12T17:55:49.256Z,5.03
2022-11-12T17:58:53.322Z,4.85
2022-11-12T18:01:56.936Z,4.89
2022-11-12T18:05:00.630Z,5.01
2022-11-12T18:08:04.392Z,5.09
2022-11-12T18:11:10.495Z,5.22
2022-11-12T18:14:14.261Z,5.21
2022-11-12T18:17:17.837Z,4.95
2022-11-12T18:20:21.507Z,4.77
2022-11-12T18:23:25.488Z,4.62
2022-11-12T18:26:30.738Z,4.62
2022-11-12T18:29:35.992Z,4.56
2022-11-12T18:32:41.373Z,4.52
2022-11-12T18:35:44.969Z,4.42
2022-11-12T18:38:50.894Z,4.27
2022-11-12T18:41:55.996Z,4.19
2022-11-12T18:44:59.597Z,4.21
2022-11-12T18:48:05.211Z,4.12
2022-11-12T18:51:12.061Z,4.08
2022-11-12T18:54:16.258Z,4.14
2022-11-12T18:57:21.210Z,4.21
2022-11-12T19:00:25.820Z,4.12
2022-11-12T19:03:29.695Z,4.01
2022-11-12T19:06:33.602Z,4.03
2022-11-12T19:09:37.197Z,4.09
2022-11-12T19:12:42.502Z,4.03
2022-11-12T19:15:46.055Z,3.81
2022-11-12T19:18:51.382Z,3.70
2022-11-12T19:21:54.993Z,3.92
2022-11-12T19:24:58.889Z,3.72
2022-11-12T19:28:04.142Z,3.85
2022-11-12T19:31:46.849Z,3.98
2022-11-12T19:34:56.197Z,4.12
2022-11-12T19:37:59.990Z,4.14
2022-11-12T19:41:07.755Z,4.24
2022-11-12T19:44:12.675Z,4.27
2022-11-12T19:47:16.492Z,4.39
2022-11-12T19:50:24.524Z,4.35
2022-11-12T19:53:32.325Z,4.32
2022-11-12T19:56:36.215Z,4.35
2022-11-12T19:59:41.206Z,4.34
2022-11-12T20:02:44.981Z,4.26
2022-11-12T20:05:48.566Z,4.24
2022-11-12T20:08:53.093Z,4.21
2022-11-12T20:11:56.698Z,4.20
2022-11-12T20:15:01.926Z,4.20
2022-11-12T20:18:06.091Z,4.19
2022-11-12T20:21:10.775Z,4.20
2022-11-12T20:24:15.377Z,4.23
2022-11-12T20:27:19.354Z,4.15
2022-11-12T20:30:24.367Z,4.06
2022-11-12T20:33:28.386Z,4.09
2022-11-12T20:36:32.447Z,4.08
2022-11-12T20:39:36.394Z,4.08
2022-11-12T20:42:41.368Z,4.04
2022-11-12T20:45:53.719Z,4.02
2022-11-12T20:48:57.595Z,4.08
2022-11-12T20:52:01.289Z,3.92
2022-11-12T20:55:05.199Z,3.80
2022-11-12T20:58:08.992Z,3.69
2022-11-12T21:01:18.521Z,3.64
2022-11-12T21:04:22.290Z,3.62
2022-11-12T21:07:25.979Z,3.55
2022-11-12T21:10:30.095Z,3.56
2022-11-12T21:13:37.104Z,3.52
2022-11-12T21:16:42.234Z,3.70
2022-11-12T21:19:45.804Z,3.73
2022-11-12T21:22:49.385Z,3.74
2022-11-12T21:25:52.986Z,3.90
2022-11-12T21:28:57.434Z,3.69
2022-11-12T21:32:02.448Z,3.63
2022-11-12T21:35:07.305Z,3.53
2022-11-12T21:38:11.093Z,3.43
2022-11-12T21:41:17.115Z,3.68
2022-11-12T21:44:20.750Z,3.42
2022-11-12T21:47:25.803Z,3.36
2022-11-12T21:50:29.903Z,3.28
2022-11-12T21:53:33.858Z,3.27
2022-11-12T21:56:40.181Z,3.23
2022-11-12T21:59:43.782Z,3.29
2022-11-12T22:02:48.899Z,3.26
2022-11-12T22:05:52.630Z,3.09
2022-11-12T22:08:58.405Z,3.17
2022-11-12T22:12:01.950Z,3.10
2022-11-12T22:15:06.646Z,3.13
2022-11-12T22:18:11.617Z,3.06
2022-11-12T22:21:18.557Z,3.03
2022-11-12T22:24:22.390Z,2.99
2022-11-12T22:27:26.066Z,2.95
2022-11-12T22:30:29.679Z,2.94
2022-11-12T22:33:34.744Z,2.94
2022-11-12T22:36:38.375Z,3.00
2022-11-12T22:39:42.067Z,2.99
2022-11-12T22:42:45.566Z,3.03
2022-11-12T22:45:49.123Z,3.02
2022-11-12T22:48:54.402Z,3.06
2022-11-12T22:51:58.045Z,3.08
2022-11-12T22:55:01.598Z,3.15
2022-11-12T22:58:05.216Z,3.20
2022-11-12T23:01:12.142Z,3.24
2022-11-12T23:04:17.234Z,3.20
2022-11-12T23:07:20.854Z,3.17
2022-11-12T23:10:24.466Z,3.25
2022-11-12T23:13:28.155Z,3.24
2022-11-12T23:16:35.994Z,3.17
2022-11-12T23:19:41.951Z,3.12
2022-11-12T23:22:45.508Z,3.09
2022-11-12T23:25:49.070Z,3.09
2022-11-12T23:28:53.234Z,3.07
2022-11-12T23:31:56.891Z,3.11
2022-11-12T23:35:02.290Z,3.20
2022-11-12T23:38:05.926Z,3.17
2022-11-12T23:41:12.298Z,3.14
2022-11-12T23:44:15.878Z,3.08
2022-11-12T23:47:19.405Z,3.07
2022-11-12T23:50:24.530Z,3.09
2022-11-12T23:53:28.091Z,3.10
2022-11-12T23:56:31.678Z,3.11
2022-11-12T23:59:35.281Z,3.11
